Time;durP1;ratioP1;P1;durP2;ratioP2;P2;SDS_P1;SDS_P2;PMS_P1;PMS_P2;Temp;Humidity;BMP_temperature;BMP_pressure;BME280_temperature;BME280_humidity;BME280_pressure;Samples;Min_cycle;Max_cycle;Signal;HPM_P1;HPM_P2
2022/08/27 06:59:50;;;;;;;;;6.75;5.50;;;;;20.58;55.05;101486.19;2573211;22;45667;-81
2022/08/27 07:01:09;;;;;;;;;8.00;5.00;;;;;20.57;55.21;101491.59;2416166;28;45497;-81
2022/08/27 07:02:20;;;;;;;;;6.00;5.00;;;;;20.54;55.14;101487.34;2412724;28;45417;-81
2022/08/27 07:03:30;;;;;;;;;6.50;6.25;;;;;20.56;54.57;101489.91;2415105;28;47257;-81
2022/08/27 07:04:40;;;;;;;;;8.50;5.00;;;;;20.55;54.85;101489.03;2412630;28;45336;-81
2022/08/27 07:05:51;;;;;;;;;6.00;5.00;;;;;20.56;55.11;101497.91;2413540;28;46157;-81
2022/08/27 07:07:02;;;;;;;;;7.00;5.75;;;;;20.54;55.14;101495.34;2413675;28;44658;-81
2022/08/27 07:08:13;;;;;;;;;7.50;3.75;;;;;20.57;55.13;101494.25;2413067;28;45370;-81
2022/08/27 07:09:24;;;;;;;;;6.25;6.25;;;;;20.57;55.41;101500.47;2413590;28;44802;-81
2022/08/27 07:10:35;;;;;;;;;6.00;6.00;;;;;20.59;55.18;101495.06;2413472;28;45519;-80
2022/08/27 07:11:45;;;;;;;;;5.25;4.25;;;;;20.62;55.19;101504.69;2413521;28;45267;-80
2022/08/27 07:12:55;;;;;;;;;6.00;6.00;;;;;20.62;55.34;101497.50;2412985;28;45152;-80
2022/08/27 07:14:07;;;;;;;;;7.75;7.75;;;;;20.66;54.92;101501.72;2413201;28;44520;-80
2022/08/27 07:15:17;;;;;;;;;8.75;6.25;;;;;20.67;55.20;101495.41;2412889;28;45489;-80
2022/08/27 07:16:28;;;;;;;;;8.25;5.00;;;;;20.68;54.90;101497.13;2413328;28;45231;-81
2022/08/27 07:17:39;;;;;;;;;5.75;5.75;;;;;20.71;55.20;101493.41;2413383;28;46397;-81
2022/08/27 07:18:52;;;;;;;;;4.50;4.00;;;;;20.75;55.18;101502.94;2412934;28;45484;-81
2022/08/27 07:20:03;;;;;;;;;10.00;6.75;;;;;20.77;54.85;101493.00;2415405;28;47415;-81
2022/08/27 07:21:14;;;;;;;;;9.00;7.25;;;;;20.82;55.01;101497.19;2424018;28;44748;-80
2022/08/27 07:22:24;;;;;;;;;5.25;3.75;;;;;20.83;55.21;101502.44;2421294;28;45446;-80
2022/08/27 07:23:37;;;;;;;;;6.00;5.50;;;;;20.87;55.05;101505.75;2413660;28;45263;-80
2022/08/27 07:24:47;;;;;;;;;4.25;4.00;;;;;20.87;55.17;101497.72;2413065;28;46276;-80
2022/08/27 07:25:58;;;;;;;;;5.25;3.50;;;;;20.90;55.17;101498.41;2413427;28;45229;-80
2022/08/27 07:27:08;;;;;;;;;5.00;5.00;;;;;20.92;55.10;101504.50;2413280;28;45246;-81
2022/08/27 07:28:18;;;;;;;;;6.50;4.00;;;;;20.98;54.97;101505.06;2413606;28;45227;-80
2022/08/27 07:29:29;;;;;;;;;4.25;4.00;;;;;21.02;54.87;101498.56;2412889;28;45335;-80
2022/08/27 07:30:39;;;;;;;;;8.50;6.00;;;;;21.06;54.69;101496.56;2415675;28;45168;-80
2022/08/27 07:31:50;;;;;;;;;5.75;5.00;;;;;21.09;54.50;101496.34;2423007;28;45153;-80
2022/08/27 07:33:00;;;;;;;;;8.75;7.00;;;;;21.13;55.07;101498.75;2416551;28;44754;-80
2022/08/27 07:34:10;;;;;;;;;8.25;8.25;;;;;21.17;54.88;101495.84;2411543;28;46974;-80
2022/08/27 07:35:21;;;;;;;;;8.75;8.00;;;;;21.19;54.55;101497.47;2411928;28;45477;-80
2022/08/27 07:36:33;;;;;;;;;7.25;6.75;;;;;21.19;54.10;101501.94;2412680;28;46348;-81
2022/08/27 07:37:43;;;;;;;;;6.50;5.50;;;;;21.18;54.65;101503.78;2413385;28;45319;-80
2022/08/27 07:38:53;;;;;;;;;6.00;6.00;;;;;21.17;54.38;101503.88;2411683;28;47626;-80
2022/08/27 07:40:07;;;;;;;;;6.75;6.25;;;;;21.17;54.78;101506.53;2402368;28;45509;-80
2022/08/27 07:41:18;;;;;;;;;8.00;6.00;;;;;21.18;54.29;101501.09;2411134;28;45418;-80
2022/08/27 07:45:30;;;;;;;;;8.00;8.00;;;;;21.22;54.09;101509.75;2414967;28;44567;-80
2022/08/27 07:46:41;;;;;;;;;7.50;6.25;;;;;21.22;54.48;101509.75;2412371;28;47184;-80
2022/08/27 07:47:52;;;;;;;;;7.25;6.25;;;;;21.23;54.05;101506.16;2412670;28;45703;-82
2022/08/27 07:49:02;;;;;;;;;6.75;6.75;;;;;21.25;54.29;101507.75;2413186;28;46533;-81
2022/08/27 07:50:13;;;;;;;;;7.75;6.25;;;;;21.24;54.09;101511.38;2421713;28;45191;-81
2022/08/27 07:51:25;;;;;;;;;5.25;4.75;;;;;21.24;54.31;101508.72;2419360;28;46141;-81
2022/08/27 07:52:36;;;;;;;;;7.25;6.00;;;;;21.22;54.55;101507.97;2413219;28;45260;-81
2022/08/27 07:53:46;;;;;;;;;7.00;6.00;;;;;21.25;54.63;101517.59;2421204;28;46272;-81
2022/08/27 07:54:57;;;;;;;;;7.25;7.00;;;;;21.22;54.05;101513.31;2417198;28;45225;-82
2022/08/27 07:56:07;;;;;;;;;6.25;6.25;;;;;21.27;54.37;101513.00;2412367;28;48007;-82
2022/08/27 07:57:18;;;;;;;;;8.25;8.25;;;;;21.29;54.41;101516.41;2412623;28;44687;-80
2022/08/27 07:58:28;;;;;;;;;6.50;6.50;;;;;21.32;54.69;101518.91;2413743;28;46773;-81
2022/08/27 07:59:39;;;;;;;;;6.25;5.00;;;;;21.35;54.00;101513.34;2421483;28;44720;-79
2022/08/27 08:00:49;;;;;;;;;9.25;5.75;;;;;21.38;54.56;101514.97;2421934;28;46288;-83
2022/08/27 08:02:00;;;;;;;;;6.25;5.25;;;;;21.40;54.24;101517.53;2412185;28;44593;-81
2022/08/27 08:03:11;;;;;;;;;4.75;4.00;;;;;21.44;54.19;101516.34;2415106;28;45471;-81
2022/08/27 08:04:22;;;;;;;;;4.00;3.25;;;;;21.47;54.32;101521.50;2422102;28;45410;-81
2022/08/27 08:05:33;;;;;;;;;8.50;4.50;;;;;21.51;54.58;101509.63;2426033;28;45336;-81
2022/08/27 08:06:43;;;;;;;;;5.00;5.00;;;;;21.58;54.54;101508.25;2432365;28;44738;-81
2022/08/27 08:07:53;;;;;;;;;3.00;3.00;;;;;21.63;54.35;101509.78;2427936;28;45569;-81
2022/08/27 08:09:05;;;;;;;;;6.75;6.75;;;;;21.66;54.01;101507.72;2422663;28;44744;-81
2022/08/27 08:10:16;;;;;;;;;7.50;7.00;;;;;21.67;54.03;101508.59;2418393;28;46979;-81
2022/08/27 08:11:26;;;;;;;;;7.00;7.00;;;;;21.71;53.83;101512.75;2423087;28;45290;-81
2022/08/27 08:12:38;;;;;;;;;8.00;6.75;;;;;21.73;53.80;101505.47;2428455;28;45228;-81
2022/08/27 08:13:49;;;;;;;;;7.50;6.25;;;;;21.74;53.88;101507.19;2432238;28;45235;-81
2022/08/27 08:14:59;;;;;;;;;10.00;6.75;;;;;21.75;53.64;101503.56;2423514;28;45247;-81
2022/08/27 08:16:10;;;;;;;;;6.50;6.50;;;;;21.81;53.55;101516.53;2422723;28;45162;-81
2022/08/27 08:17:21;;;;;;;;;5.00;5.00;;;;;21.83;53.85;101518.25;2423030;28;45312;-80
2022/08/27 08:18:32;;;;;;;;;6.00;4.00;;;;;21.86;53.80;101524.25;2425444;28;46820;-81
2022/08/27 08:19:43;;;;;;;;;8.00;6.50;;;;;21.87;53.44;101522.44;2423577;28;46286;-81
2022/08/27 08:21:01;;;;;;;;;8.00;7.00;;;;;21.89;53.17;101528.53;2424189;28;44825;-80
2022/08/27 08:22:13;;;;;;;;;1.75;1.25;;;;;21.89;53.07;101523.19;2422456;28;47266;-81
2022/08/27 08:23:23;;;;;;;;;5.00;5.00;;;;;21.87;53.44;101525.97;2423920;28;45392;-81
2022/08/27 08:24:35;;;;;;;;;6.25;6.25;;;;;21.87;53.34;101528.66;2424829;28;46555;-80
2022/08/27 08:25:45;;;;;;;;;7.50;5.50;;;;;21.88;53.30;101524.13;2423920;28;46674;-80
2022/08/27 08:26:55;;;;;;;;;6.25;5.50;;;;;21.92;53.28;101526.53;2419157;28;48072;-80
2022/08/27 08:28:06;;;;;;;;;6.00;5.75;;;;;21.95;52.89;101520.09;2422579;28;45229;-79
2022/08/27 08:29:16;;;;;;;;;6.00;5.00;;;;;21.97;52.64;101515.50;2424044;28;45405;-80
2022/08/27 08:30:27;;;;;;;;;6.50;6.50;;;;;21.98;52.34;101521.69;2418601;28;45222;-80
2022/08/27 08:31:37;;;;;;;;;7.25;5.50;;;;;21.97;52.33;101518.16;2414776;28;46145;-80
2022/08/27 08:32:48;;;;;;;;;5.00;5.00;;;;;21.98;53.12;101519.00;2422664;28;45387;-80
2022/08/27 08:33:59;;;;;;;;;5.25;4.00;;;;;22.00;52.55;101512.59;2425524;28;46434;-80
2022/08/27 08:35:10;;;;;;;;;3.75;2.00;;;;;22.02;52.60;101517.84;2422512;28;45243;-80
2022/08/27 08:36:20;;;;;;;;;6.00;4.00;;;;;22.06;52.77;101518.47;2422237;28;45506;-80
2022/08/27 08:37:31;;;;;;;;;7.00;6.50;;;;;22.06;52.29;101519.34;2422591;28;45228;-80
2022/08/27 08:38:43;;;;;;;;;5.25;3.75;;;;;22.07;51.86;101518.38;2421868;28;46136;-80
2022/08/27 08:39:53;;;;;;;;;9.75;8.00;;;;;22.07;51.95;101515.72;2422626;28;45228;-80
2022/08/27 08:41:14;;;;;;;;;7.00;6.00;;;;;22.07;52.44;101520.19;2421891;28;45596;-80
2022/08/27 08:42:44;;;;;;;;;9.00;5.25;;;;;22.08;52.79;101516.53;2402807;28;45346;-80
2022/08/27 08:43:55;;;;;;;;;5.25;5.00;;;;;22.11;52.43;101519.88;2408290;28;46378;-80
2022/08/27 08:45:07;;;;;;;;;7.00;6.00;;;;;22.14;52.10;101518.81;2419266;28;44626;-80
2022/08/27 08:46:29;;;;;;;;;6.75;5.25;;;;;22.13;52.67;101512.59;2422246;28;45415;-80
2022/08/27 08:47:44;;;;;;;;;4.00;4.00;;;;;22.16;52.00;101511.50;2412237;28;44673;-80
2022/08/27 08:49:01;;;;;;;;;7.75;7.00;;;;;22.18;52.12;101516.75;2414478;28;46650;-80
2022/08/27 08:50:46;;;;;;;;;8.25;6.50;;;;;22.18;51.59;101520.28;2421350;28;45414;-80
2022/08/27 08:52:09;;;;;;;;;5.00;5.00;;;;;22.19;51.95;101516.66;2391994;28;46552;-80
2022/08/27 08:53:38;;;;;;;;;8.00;4.75;;;;;22.21;52.07;101512.06;2419358;28;44513;-80
2022/08/27 08:54:50;;;;;;;;;5.00;5.00;;;;;22.19;51.32;101516.66;2422157;28;46425;-79
2022/08/27 08:56:04;;;;;;;;;5.00;5.00;;;;;22.20;52.28;101513.00;2422285;28;45291;-80
2022/08/27 08:57:25;;;;;;;;;6.50;6.50;;;;;22.21;51.77;101514.72;2422313;28;46191;-81
2022/08/27 08:58:50;;;;;;;;;5.50;5.00;;;;;22.24;52.01;101513.66;2422528;28;45216;-80
2022/08/27 09:00:13;;;;;;;;;7.00;7.00;;;;;22.26;52.21;101507.22;2411012;28;47215;-80
2022/08/27 09:01:26;;;;;;;;;8.50;5.50;;;;;22.28;51.63;101508.94;2406875;28;45340;-80
2022/08/27 09:02:37;;;;;;;;;8.50;7.00;;;;;22.31;52.05;101506.91;2415067;28;46518;-80
2022/08/27 09:03:54;;;;;;;;;8.75;5.25;;;;;22.34;51.89;101513.84;2422220;28;45347;-80
2022/08/27 09:05:07;;;;;;;;;6.25;4.00;;;;;22.37;52.08;101510.97;2422314;28;45339;-80
2022/08/27 09:06:48;;;;;;;;;5.75;5.75;;;;;22.41;51.80;101514.28;2422296;28;45184;-80
2022/08/27 09:08:20;;;;;;;;;4.25;4.00;;;;;22.48;51.51;101507.50;2419249;28;45450;-80
2022/08/27 09:09:41;;;;;;;;;4.00;3.75;;;;;22.55;51.27;101515.94;2408945;28;45271;-80
2022/08/27 09:11:16;;;;;;;;;7.50;6.00;;;;;22.59;50.43;101520.13;2406433;28;46276;-81
2022/08/27 09:12:31;;;;;;;;;6.50;4.00;;;;;22.63;51.06;101518.06;2411843;28;45233;-80
2022/08/27 09:13:59;;;;;;;;;5.00;4.00;;;;;22.66;50.87;101518.72;2405692;28;46525;-80
2022/08/27 09:15:18;;;;;;;;;6.50;5.25;;;;;22.73;50.54;101518.28;2410732;28;44717;-80
2022/08/27 09:16:31;;;;;;;;;5.00;5.00;;;;;22.77;50.25;101511.72;2406899;28;47536;-81
2022/08/27 09:17:42;;;;;;;;;5.00;3.00;;;;;22.79;49.79;101512.50;2416650;28;44630;-80
2022/08/27 09:18:53;;;;;;;;;5.50;5.50;;;;;22.80;50.20;101516.88;2421572;28;46374;-80
2022/08/27 09:20:04;;;;;;;;;5.75;4.25;;;;;22.79;50.13;101513.34;2411594;28;45386;-80
2022/08/27 09:22:13;;;;;;;;;7.00;4.00;;;;;22.84;49.63;101515.66;2414506;28;45530;-81
2022/08/27 09:23:53;;;;;;;;;4.75;3.00;;;;;22.86;49.26;101504.84;2418885;28;44861;-80
2022/08/27 09:25:06;;;;;;;;;3.25;3.25;;;;;22.89;48.70;101505.47;2410733;28;45534;-80
2022/08/27 09:26:25;;;;;;;;;3.50;2.50;;;;;22.90;48.32;101507.19;2421159;28;45422;-81
2022/08/27 09:27:41;;;;;;;;;3.00;3.00;;;;;22.94;48.19;101510.50;2421954;28;46893;-80
2022/08/27 09:29:19;;;;;;;;;0.75;0.00;;;;;22.96;48.29;101508.56;2428443;28;44689;-81
2022/08/27 09:30:40;;;;;;;;;3.00;3.00;;;;;22.96;47.56;101502.34;2402267;28;46241;-80
2022/08/27 09:31:59;;;;;;;;;3.00;3.00;;;;;23.00;47.40;101514.56;2414647;28;45458;-80
2022/08/27 09:33:09;;;;;;;;;5.00;3.50;;;;;22.99;47.98;101508.31;2421858;28;45293;-81
2022/08/27 09:34:21;;;;;;;;;6.00;4.25;;;;;23.02;48.11;101512.59;2422098;28;45287;-81
2022/08/27 09:35:43;;;;;;;;;6.25;4.00;;;;;23.06;47.94;101511.44;2421989;28;45453;-80
2022/08/27 09:37:01;;;;;;;;;4.25;3.50;;;;;23.08;47.92;101512.16;2422043;28;44670;-79
2022/08/27 09:38:25;;;;;;;;;5.00;4.75;;;;;23.08;47.65;101504.13;2421877;28;45430;-81
2022/08/27 09:39:55;;;;;;;;;4.75;4.00;;;;;23.11;47.44;101506.56;2421804;28;44710;-79
2022/08/27 09:41:11;;;;;;;;;4.00;4.00;;;;;23.15;47.07;101510.72;2421501;28;45496;-79
2022/08/27 09:42:45;;;;;;;;;3.50;3.00;;;;;23.17;47.36;101515.97;2422180;28;44678;-79
2022/08/27 09:43:58;;;;;;;;;6.00;4.00;;;;;23.19;47.96;101519.38;2421264;28;46349;-81
2022/08/27 09:45:12;;;;;;;;;3.00;3.00;;;;;23.23;47.78;101515.53;2409416;28;45594;-80
2022/08/27 09:46:24;;;;;;;;;2.00;2.00;;;;;23.24;47.09;101513.69;2413893;28;46587;-80
2022/08/27 09:47:44;;;;;;;;;4.25;3.25;;;;;23.25;47.28;101508.22;2421371;28;45359;-79
2022/08/27 09:48:55;;;;;;;;;4.00;2.75;;;;;23.27;47.89;101510.78;2410703;28;47086;-80
2022/08/27 09:50:08;;;;;;;;;3.75;3.00;;;;;23.31;46.52;101517.59;2404001;28;45464;-79
2022/08/27 09:51:22;;;;;;;;;4.00;4.00;;;;;23.32;47.03;101515.78;2414230;28;46727;-80
2022/08/27 09:52:54;;;;;;;;;4.00;4.00;;;;;23.34;46.98;101520.06;2410833;28;45439;-79
2022/08/27 09:54:05;;;;;;;;;4.50;4.25;;;;;23.35;47.38;101515.56;2406503;28;47165;-79
2022/08/27 09:55:57;;;;;;;;;7.50;5.00;;;;;23.38;47.13;101518.03;2414024;28;45248;-80
2022/08/27 09:57:09;;;;;;;;;5.25;3.75;;;;;23.42;46.42;101524.00;2390458;28;45647;-80
2022/08/27 09:58:28;;;;;;;;;4.00;4.00;;;;;23.44;45.82;101519.34;2394657;28;45664;-79
2022/08/27 09:59:49;;;;;;;;;5.00;3.00;;;;;23.45;45.85;101515.72;2391211;28;45608;-78
2022/08/27 10:01:06;;;;;;;;;2.00;2.00;;;;;23.47;46.41;101517.31;2396395;28;45222;-79
2022/08/27 10:02:22;;;;;;;;;4.50;2.00;;;;;23.51;46.11;101517.13;2395468;28;46382;-79
2022/08/27 10:03:33;;;;;;;;;3.00;3.00;;;;;23.50;46.15;101513.56;2413760;28;45250;-79
2022/08/27 10:04:49;;;;;;;;;7.25;4.75;;;;;23.51;45.92;101517.94;2421817;28;45524;-79
2022/08/27 10:06:00;;;;;;;;;6.50;4.25;;;;;23.48;46.01;101513.66;2420901;28;45272;-79
2022/08/27 10:07:26;;;;;;;;;5.00;5.00;;;;;23.49;46.15;101526.13;2421789;28;45470;-79
2022/08/27 10:08:46;;;;;;;;;6.50;5.25;;;;;23.48;45.63;101526.22;2420841;28;45413;-79
2022/08/27 10:10:09;;;;;;;;;5.00;4.00;;;;;23.47;45.52;101516.44;2420841;28;45638;-79
2022/08/27 10:11:27;;;;;;;;;3.00;3.00;;;;;23.45;45.60;101518.41;2417982;28;44722;-80
2022/08/27 10:13:00;;;;;;;;;6.25;4.00;;;;;23.47;45.52;101519.13;2421785;28;45583;-79
2022/08/27 10:14:23;;;;;;;;;3.00;3.00;;;;;23.46;45.14;101520.94;2421364;28;45553;-81
2022/08/27 10:15:39;;;;;;;;;4.00;4.00;;;;;23.48;45.15;101518.19;2420855;28;45513;-81
2022/08/27 10:17:04;;;;;;;;;4.50;4.50;;;;;23.48;44.75;101523.53;2421131;28;45205;-81
2022/08/27 10:18:30;;;;;;;;;3.75;3.00;;;;;23.47;44.82;101522.69;2421740;28;45401;-81
2022/08/27 10:20:18;;;;;;;;;4.25;4.25;;;;;23.48;44.34;101518.19;2421938;28;44846;-82
2022/08/27 10:21:38;;;;;;;;;4.75;3.75;;;;;23.45;44.62;101513.91;2421605;28;46359;-82
2022/08/27 10:23:09;;;;;;;;;6.75;3.25;;;;;23.47;44.60;101517.31;2421942;28;45216;-82
2022/08/27 10:24:36;;;;;;;;;4.00;3.00;;;;;23.47;44.78;101509.25;2421849;28;46577;-82
2022/08/27 10:26:11;;;;;;;;;7.00;5.00;;;;;23.51;45.21;101515.25;2420876;28;45262;-82
2022/08/27 10:27:31;;;;;;;;;3.75;3.75;;;;;23.52;45.50;101511.63;2421043;28;46351;-82
2022/08/27 10:28:53;;;;;;;;;4.00;4.00;;;;;23.54;45.44;101506.13;2421752;28;45440;-82
2022/08/27 10:30:19;;;;;;;;;6.00;4.75;;;;;23.57;45.38;101505.91;2423750;28;45478;-82
2022/08/27 10:31:38;;;;;;;;;6.75;5.00;;;;;23.60;45.40;101509.22;2412308;28;45216;-82
2022/08/27 10:33:26;;;;;;;;;5.50;4.00;;;;;23.69;44.94;101514.84;2421586;28;47342;-82
2022/08/27 10:35:03;;;;;;;;;6.00;6.00;;;;;23.71;45.24;101507.50;2414848;28;45261;-81
2022/08/27 10:36:43;;;;;;;;;4.50;4.00;;;;;23.73;45.67;101500.19;2412127;28;45370;-82
2022/08/27 10:38:02;;;;;;;;;5.75;4.00;;;;;23.77;45.16;101507.06;2412269;28;45357;-82
2022/08/27 10:39:34;;;;;;;;;5.25;4.25;;;;;23.80;45.22;101509.50;2420876;28;46553;-82
2022/08/27 10:40:52;;;;;;;;;5.25;5.25;;;;;23.80;45.26;101501.44;2421583;28;45669;-82
2022/08/27 10:42:17;;;;;;;;;2.50;2.25;;;;;23.83;43.99;101506.56;2421510;28;45354;-81
2022/08/27 10:43:36;;;;;;;;;4.00;4.00;;;;;23.85;44.35;101509.16;2421317;28;45207;-82
2022/08/27 10:45:17;;;;;;;;;5.50;5.50;;;;;23.85;44.53;101502.91;2421322;28;45460;-81
2022/08/27 10:47:09;;;;;;;;;5.00;4.00;;;;;23.90;44.66;101500.72;2412234;28;45153;-82
2022/08/27 10:48:24;;;;;;;;;7.50;5.00;;;;;23.91;44.72;101499.75;2372743;28;46413;-83
2022/08/27 10:49:48;;;;;;;;;6.75;4.00;;;;;23.95;44.92;101498.53;2374824;28;45482;-82
2022/08/27 10:51:11;;;;;;;;;4.25;4.00;;;;;23.97;44.56;101501.94;2415467;28;46224;-83
2022/08/27 10:52:48;;;;;;;;;3.00;3.00;;;;;24.02;44.57;101493.53;2423429;28;44744;-83
2022/08/27 10:54:19;;;;;;;;;6.25;5.00;;;;;24.06;44.50;101495.00;2412868;28;47451;-83
2022/08/27 10:55:39;;;;;;;;;5.00;4.50;;;;;24.13;44.02;101489.97;2418516;28;45186;-83
2022/08/27 10:57:04;;;;;;;;;4.00;3.25;;;;;24.17;44.13;101491.47;2423203;28;45596;-82
2022/08/27 10:58:36;;;;;;;;;6.00;4.00;;;;;24.20;44.11;101495.75;2422832;28;45355;-82
2022/08/27 11:00:00;;;;;;;;;6.25;6.25;;;;;24.22;43.22;101497.31;2422586;28;45294;-82
2022/08/27 11:01:29;;;;;;;;;3.00;3.00;;;;;24.24;43.49;101498.06;2423301;28;45157;-81
2022/08/27 11:02:53;;;;;;;;;4.00;3.75;;;;;24.25;43.66;101489.03;2423085;28;45233;-82
2022/08/27 11:04:14;;;;;;;;;4.50;4.50;;;;;24.26;43.21;101480.00;2423307;28;45295;-82
2022/08/27 11:05:30;;;;;;;;;3.75;3.75;;;;;24.28;43.46;101483.44;2422376;28;46447;-82
2022/08/27 11:06:52;;;;;;;;;4.00;4.00;;;;;24.33;43.46;101479.50;2423352;28;45270;-82
2022/08/27 11:08:12;;;;;;;;;5.25;4.50;;;;;24.34;43.51;101476.72;2422622;28;46713;-82
2022/08/27 11:09:46;;;;;;;;;3.00;3.00;;;;;24.38;42.76;101474.63;2423277;28;44735;-82
2022/08/27 11:11:06;;;;;;;;;5.00;5.00;;;;;24.37;43.27;101473.75;2423119;28;45263;-83
2022/08/27 11:12:24;;;;;;;;;7.00;6.00;;;;;24.40;42.26;101475.34;2403349;28;45328;-82
2022/08/27 11:13:38;;;;;;;;;5.75;5.50;;;;;24.41;42.95;101469.00;2414992;28;46382;-83
2022/08/27 11:14:57;;;;;;;;;4.25;4.00;;;;;24.43;42.81;101467.03;2422770;28;45472;-83
2022/08/27 11:16:26;;;;;;;;;5.50;5.50;;;;;24.47;43.01;101467.66;2422647;28;46622;-83
2022/08/27 11:17:44;;;;;;;;;4.50;4.50;;;;;24.49;42.34;101469.25;2422310;28;44781;-82
2022/08/27 11:19:17;;;;;;;;;4.50;4.50;;;;;24.54;42.95;101470.69;2422127;28;45322;-82
2022/08/27 11:20:33;;;;;;;;;4.00;4.00;;;;;24.56;42.46;101474.97;2422952;28;45165;-82
2022/08/27 11:22:11;;;;;;;;;6.00;5.00;;;;;24.58;42.97;101474.81;2423011;28;46337;-82
2022/08/27 11:23:48;;;;;;;;;6.25;5.00;;;;;24.64;42.69;101470.78;2423070;28;45327;-83
2022/08/27 11:25:04;;;;;;;;;5.25;4.00;;;;;24.66;43.09;101452.69;2422993;28;46084;-83
2022/08/27 11:26:14;;;;;;;;;5.75;4.50;;;;;24.68;42.33;101451.59;2423288;28;45220;-82
2022/08/27 11:27:29;;;;;;;;;4.00;4.00;;;;;24.73;42.03;101454.75;2422919;28;45425;-82
2022/08/27 11:28:47;;;;;;;;;6.00;5.25;;;;;24.76;41.30;101463.56;2412023;28;45237;-82
2022/08/27 11:30:10;;;;;;;;;4.00;4.00;;;;;24.74;41.13;101461.00;2416188;28;45545;-82
2022/08/27 11:31:20;;;;;;;;;4.25;4.25;;;;;24.77;41.31;101470.66;2422742;28;45148;-79
2022/08/27 11:32:43;;;;;;;;;6.75;5.25;;;;;24.77;41.42;101470.66;2422803;28;46375;-79
2022/08/27 11:34:14;;;;;;;;;5.00;3.00;;;;;24.79;40.89;101464.13;2420033;28;45469;-79
2022/08/27 11:35:44;;;;;;;;;4.00;4.00;;;;;24.78;40.71;101456.22;2411878;28;46633;-80
2022/08/27 11:37:15;;;;;;;;;4.25;4.00;;;;;24.81;41.04;101455.97;2417637;28;45455;-80
2022/08/27 11:39:12;;;;;;;;;3.50;3.50;;;;;24.82;41.09;101455.81;2422086;28;46466;-80
2022/08/27 11:40:53;;;;;;;;;3.75;3.75;;;;;24.88;40.77;101457.16;2408064;28;45355;-80
2022/08/27 11:42:15;;;;;;;;;6.00;4.25;;;;;24.91;41.67;101454.22;2421967;28;45539;-80
2022/08/27 11:43:31;;;;;;;;;4.75;4.75;;;;;24.93;40.57;101460.31;2421331;28;45279;-80
2022/08/27 11:44:45;;;;;;;;;7.25;5.00;;;;;24.93;40.86;101452.25;2421945;28;45360;-80
2022/08/27 11:46:02;;;;;;;;;2.25;2.00;;;;;24.98;40.63;101454.56;2422191;28;44706;-79
2022/08/27 11:47:24;;;;;;;;;3.25;3.25;;;;;25.01;41.19;101448.09;2421937;28;46510;-80
2022/08/27 11:48:41;;;;;;;;;2.25;2.25;;;;;25.05;41.04;101450.41;2422222;28;45363;-79
2022/08/27 11:49:57;;;;;;;;;4.00;3.75;;;;;25.09;40.43;101450.97;2411682;28;47191;-79
2022/08/27 11:51:33;;;;;;;;;7.25;5.00;;;;;25.13;40.34;101456.97;2415681;28;45442;-79
2022/08/27 11:53:04;;;;;;;;;3.25;3.25;;;;;25.11;40.30;101457.09;2422840;28;45362;-79
2022/08/27 11:54:27;;;;;;;;;4.00;4.00;;;;;25.12;38.96;101455.25;2419656;28;45412;-79
2022/08/27 11:55:38;;;;;;;;;5.75;3.50;;;;;25.12;39.61;101453.41;2422591;28;45746;-79
2022/08/27 11:56:50;;;;;;;;;3.75;2.00;;;;;25.14;39.33;101456.81;2422884;28;45229;-79
2022/08/27 11:58:28;;;;;;;;;3.00;3.00;;;;;25.19;39.42;101461.81;2422054;28;46752;-79
2022/08/27 11:59:41;;;;;;;;;4.50;4.50;;;;;25.19;39.63;101461.81;2421360;28;45386;-78
2022/08/27 12:00:52;;;;;;;;;4.50;3.25;;;;;25.21;39.43;101459.00;2422139;28;46216;-80
2022/08/27 12:02:11;;;;;;;;;4.75;4.75;;;;;25.22;39.47;101453.47;2421432;28;45247;-79
2022/08/27 12:03:23;;;;;;;;;5.00;3.75;;;;;25.25;39.14;101452.38;2423360;28;45512;-80
2022/08/27 12:04:37;;;;;;;;;4.50;4.00;;;;;25.27;38.95;101450.41;2422840;28;45445;-80
2022/08/27 12:05:53;;;;;;;;;4.50;4.00;;;;;25.28;39.54;101462.88;2421119;28;45514;-80
2022/08/27 12:07:05;;;;;;;;;4.00;4.00;;;;;25.27;38.92;101450.41;2422889;28;44730;-80
2022/08/27 12:08:22;;;;;;;;;4.00;4.00;;;;;25.26;39.01;101454.91;2422172;28;46292;-80
2022/08/27 12:10:18;;;;;;;;;3.00;3.00;;;;;25.29;39.27;101448.44;2421888;28;44770;-81
2022/08/27 12:11:38;;;;;;;;;4.50;4.00;;;;;25.30;38.69;101447.47;2385561;28;45439;-80
2022/08/27 12:12:54;;;;;;;;;2.00;2.00;;;;;25.31;38.39;101449.13;2412096;28;45244;-80
2022/08/27 12:14:08;;;;;;;;;5.00;3.25;;;;;25.33;39.18;101460.66;2415021;28;45519;-80
2022/08/27 12:15:41;;;;;;;;;4.25;4.25;;;;;25.33;37.76;101447.19;2418172;28;44748;-80
2022/08/27 12:17:02;;;;;;;;;3.00;3.00;;;;;25.34;37.97;101450.72;2421906;28;45457;-80
2022/08/27 12:18:50;;;;;;;;;4.00;4.00;;;;;25.37;36.85;101458.53;2422708;28;45296;-80
2022/08/27 12:20:19;;;;;;;;;4.00;3.00;;;;;25.40;37.88;101455.59;2419086;28;46519;-80
2022/08/27 12:21:35;;;;;;;;;5.00;2.75;;;;;25.41;37.01;101446.50;2421447;28;44811;-80
2022/08/27 12:24:47;;;;;;;;;3.50;3.50;;;;;25.46;37.34;101440.75;2422687;28;44607;-80
2022/08/27 12:26:12;;;;;;;;;4.25;4.00;;;;;25.48;37.34;101438.78;2422771;28;46339;-80
2022/08/27 12:27:26;;;;;;;;;5.00;3.00;;;;;25.51;37.74;101441.19;2421997;28;45222;-80
2022/08/27 12:28:37;;;;;;;;;2.50;2.50;;;;;25.53;37.71;101441.94;2422466;28;45462;-80
2022/08/27 12:29:52;;;;;;;;;4.25;3.75;;;;;25.56;37.76;101444.34;2422240;28;45208;-80
2022/08/27 12:31:05;;;;;;;;;4.00;4.00;;;;;25.58;38.08;101428.91;2421682;28;46371;-80
2022/08/27 12:32:27;;;;;;;;;4.00;3.00;;;;;25.61;37.75;101442.09;2422423;28;45516;-80
2022/08/27 12:33:46;;;;;;;;;4.00;4.00;;;;;25.62;38.01;101434.91;2422354;28;45301;-80
2022/08/27 12:35:13;;;;;;;;;5.00;3.25;;;;;25.67;37.38;101429.09;2422640;28;45247;-80
2022/08/27 12:36:26;;;;;;;;;3.00;3.00;;;;;25.70;37.98;101435.09;2426375;28;45318;-80
2022/08/27 12:37:44;;;;;;;;;5.00;5.00;;;;;25.70;37.26;101429.72;2432025;28;45275;-80
2022/08/27 12:38:58;;;;;;;;;4.75;3.00;;;;;25.73;37.31;101434.81;2421504;28;47464;-79
2022/08/27 12:40:24;;;;;;;;;4.25;3.75;;;;;25.75;38.03;101437.41;2423312;28;45283;-80
2022/08/27 12:41:37;;;;;;;;;3.75;3.00;;;;;25.75;37.83;101431.16;2421325;28;46393;-80
2022/08/27 12:42:48;;;;;;;;;1.00;1.00;;;;;25.75;37.25;101434.72;2421708;28;45237;-81
2022/08/27 12:44:09;;;;;;;;;6.00;5.00;;;;;25.73;36.92;101426.75;2421687;28;46432;-80
2022/08/27 12:45:24;;;;;;;;;4.00;4.00;;;;;25.73;37.48;101434.00;2422277;28;44637;-80
2022/08/27 12:46:45;;;;;;;;;4.50;3.25;;;;;25.76;37.89;101428.31;2427201;28;48151;-80
2022/08/27 12:47:56;;;;;;;;;3.50;3.00;;;;;25.77;37.29;101430.03;2431687;28;45228;-82
2022/08/27 12:49:07;;;;;;;;;3.00;3.00;;;;;25.79;37.53;101427.22;2430100;28;46233;-81
2022/08/27 12:50:27;;;;;;;;;3.50;2.50;;;;;25.80;37.41;101428.94;2422436;28;45403;-82
2022/08/27 12:51:38;;;;;;;;;4.50;4.00;;;;;25.81;37.93;101430.63;2422098;28;46396;-83
2022/08/27 12:53:08;;;;;;;;;5.00;3.25;;;;;25.81;36.05;101419.84;2421256;28;45254;-82
2022/08/27 12:54:46;;;;;;;;;3.50;2.50;;;;;25.80;37.15;101420.84;2411279;28;47056;-82
2022/08/27 12:56:16;;;;;;;;;7.00;3.00;;;;;25.80;36.85;101418.16;2415269;28;45333;-82
2022/08/27 12:57:36;;;;;;;;;3.75;3.00;;;;;25.85;37.06;101421.31;2415007;28;45303;-82
2022/08/27 12:58:59;;;;;;;;;5.00;3.50;;;;;25.88;37.55;101425.56;2417526;28;44632;-82
2022/08/27 13:00:17;;;;;;;;;6.00;3.75;;;;;25.91;37.31;101419.88;2421395;28;45441;-81
2022/08/27 13:01:28;;;;;;;;;3.25;2.75;;;;;25.93;36.63;101420.59;2422369;28;44586;-82
2022/08/27 13:03:13;;;;;;;;;4.00;4.00;;;;;25.92;37.49;101417.06;2422200;28;46510;-82
2022/08/27 13:04:30;;;;;;;;;4.75;4.00;;;;;25.93;36.88;101426.84;2422220;28;45414;-82
2022/08/27 13:05:45;;;;;;;;;5.50;5.00;;;;;25.93;36.80;101428.66;2422180;28;45527;-82
2022/08/27 13:06:56;;;;;;;;;4.00;3.00;;;;;25.93;37.06;101408.00;2422260;28;44705;-82
2022/08/27 13:08:19;;;;;;;;;3.25;3.25;;;;;25.96;37.36;101414.94;2422648;28;45472;-82
2022/08/27 13:09:34;;;;;;;;;4.25;4.25;;;;;25.95;37.49;101407.88;2421653;28;45233;-83
2022/08/27 13:10:45;;;;;;;;;3.25;3.25;;;;;25.95;36.46;101415.94;2411462;28;48317;-82